createdAt,value
2022-08-28T00:00:21.179Z,71.54
2022-08-28T00:01:23.417Z,71.75
2022-08-28T00:02:25.674Z,71.61
2022-08-28T00:03:28.027Z,71.28
2022-08-28T00:04:34.220Z,71.27
2022-08-28T00:05:38.997Z,71.17
2022-08-28T00:06:41.224Z,71.25
2022-08-28T00:07:47.686Z,71.38
2022-08-28T00:08:50.285Z,71.43
2022-08-28T00:09:52.512Z,71.54
2022-08-28T00:10:58.170Z,71.25
2022-08-28T00:12:00.982Z,71.17
2022-08-28T00:13:03.340Z,71.08
2022-08-28T00:14:07.472Z,71.38
2022-08-28T00:15:22.014Z,71.02
2022-08-28T00:16:24.611Z,71.28
2022-08-28T00:17:28.873Z,71.37
2022-08-28T00:18:31.627Z,71.33
2022-08-28T00:19:38.458Z,71.30
2022-08-28T00:20:41.666Z,70.97
2022-08-28T00:21:47.266Z,71.08
2022-08-28T00:22:51.200Z,71.04
2022-08-28T00:23:53.751Z,70.86
2022-08-28T00:24:55.992Z,71.07
2022-08-28T00:25:58.406Z,70.83
2022-08-28T00:27:22.061Z,70.82
2022-08-28T00:28:24.706Z,71.28
2022-08-28T00:29:29.808Z,71.20
2022-08-28T00:30:42.411Z,70.97
2022-08-28T00:31:44.762Z,71.26
2022-08-28T00:32:47.086Z,71.02
2022-08-28T00:33:49.307Z,70.97
2022-08-28T00:34:53.419Z,71.04
2022-08-28T00:35:57.374Z,71.04
2022-08-28T00:37:00.293Z,71.21
2022-08-28T00:38:02.608Z,71.01
2022-08-28T00:39:06.451Z,71.15
2022-08-28T00:40:10.220Z,70.99
2022-08-28T00:41:12.582Z,70.93
2022-08-28T00:42:17.508Z,71.05
2022-08-28T00:43:26.577Z,70.86
2022-08-28T00:44:30.061Z,70.82
2022-08-28T00:45:38.738Z,70.81
2022-08-28T00:46:45.293Z,71.14
2022-08-28T00:47:48.702Z,71.07
2022-08-28T00:48:50.968Z,70.80
2022-08-28T00:49:56.408Z,71.19
2022-08-28T00:51:18.155Z,71.03
2022-08-28T00:52:23.770Z,70.85
2022-08-28T00:53:29.073Z,71.07
2022-08-28T00:54:58.405Z,70.97
2022-08-28T00:56:12.865Z,71.08
2022-08-28T00:57:20.156Z,71.12
2022-08-28T00:58:23.412Z,70.93
2022-08-28T00:59:26.078Z,71.20
2022-08-28T01:00:31.041Z,71.19
2022-08-28T01:01:33.384Z,71.02
2022-08-28T01:02:36.031Z,71.25
2022-08-28T01:03:41.523Z,71.26
2022-08-28T01:04:44.054Z,71.27
2022-08-28T01:05:49.331Z,71.12
2022-08-28T01:06:54.591Z,71.23
2022-08-28T01:07:59.001Z,71.12
2022-08-28T01:09:01.387Z,71.16
2022-08-28T01:10:05.637Z,70.98
2022-08-28T01:11:10.936Z,70.97
2022-08-28T01:12:19.681Z,70.91
2022-08-28T01:13:24.213Z,70.94
2022-08-28T01:14:30.977Z,71.19
2022-08-28T01:15:36.864Z,70.65
2022-08-28T01:16:40.300Z,70.86
2022-08-28T01:17:46.143Z,70.75
2022-08-28T01:18:53.077Z,70.67
2022-08-28T01:20:00.288Z,70.49
2022-08-28T01:21:13.557Z,70.49
2022-08-28T01:22:40.183Z,70.49
2022-08-28T01:23:53.967Z,70.48
2022-08-28T01:24:59.178Z,70.31
2022-08-28T01:26:01.491Z,70.56
2022-08-28T01:27:08.796Z,70.36
2022-08-28T01:28:13.825Z,70.63
2022-08-28T01:29:16.439Z,70.67
2022-08-28T01:30:21.680Z,70.60
2022-08-28T01:31:25.471Z,70.80
2022-08-28T01:32:43.361Z,70.60
2022-08-28T01:33:46.506Z,70.51
2022-08-28T01:34:48.773Z,70.59
2022-08-28T01:35:53.532Z,70.66
2022-08-28T01:36:55.722Z,70.72
2022-08-28T01:38:02.048Z,70.60
2022-08-28T01:39:19.503Z,70.68
2022-08-28T01:40:31.013Z,70.80
2022-08-28T01:41:34.048Z,70.57
2022-08-28T01:42:40.898Z,70.87
2022-08-28T01:43:44.060Z,70.84
2022-08-28T01:44:46.595Z,70.74
2022-08-28T01:45:54.819Z,70.71
2022-08-28T01:46:58.596Z,70.72
2022-08-28T01:48:00.773Z,70.92
2022-08-28T01:49:04.006Z,70.98
2022-08-28T01:50:08.377Z,70.90
2022-08-28T01:51:12.193Z,70.91
2022-08-28T01:52:14.356Z,70.86
2022-08-28T01:53:19.650Z,71.06
2022-08-28T01:54:30.263Z,70.97
2022-08-28T01:55:35.863Z,70.93
2022-08-28T01:56:43.041Z,71.05
2022-08-28T01:57:48.033Z,71.02
2022-08-28T01:58:50.538Z,71.10
2022-08-28T01:59:54.489Z,71.29
2022-08-28T02:00:57.602Z,71.13
2022-08-28T02:01:59.896Z,70.94
2022-08-28T02:03:02.992Z,71.06
2022-08-28T02:04:06.142Z,70.94
2022-08-28T02:05:10.239Z,71.23
2022-08-28T02:06:13.822Z,70.97
2022-08-28T02:07:17.072Z,71.20
2022-08-28T02:08:20.606Z,71.48
2022-08-28T02:09:22.805Z,71.18
2022-08-28T02:10:27.114Z,71.13
2022-08-28T02:11:32.298Z,71.28
2022-08-28T02:12:34.736Z,71.36
2022-08-28T02:13:37.743Z,71.00
2022-08-28T02:14:39.974Z,71.07
2022-08-28T02:15:43.892Z,70.90
2022-08-28T02:16:46.639Z,70.96
2022-08-28T02:17:48.836Z,71.11
2022-08-28T02:18:51.052Z,70.96
2022-08-28T02:19:53.308Z,71.18
2022-08-28T02:20:55.895Z,70.84
2022-08-28T02:21:58.088Z,71.08
2022-08-28T02:23:00.961Z,70.95
2022-08-28T02:24:04.582Z,71.26
2022-08-28T02:25:07.784Z,71.25
2022-08-28T02:26:14.927Z,70.95
2022-08-28T02:27:17.207Z,70.96
2022-08-28T02:28:19.372Z,70.87
2022-08-28T02:29:22.111Z,71.08
2022-08-28T02:30:24.856Z,71.07
2022-08-28T02:31:27.635Z,70.78
2022-08-28T02:32:30.013Z,70.74
2022-08-28T02:33:32.319Z,70.99
2022-08-28T02:34:35.215Z,70.81
2022-08-28T02:35:42.619Z,70.72
2022-08-28T02:36:44.817Z,70.53
2022-08-28T02:37:47.913Z,70.58
2022-08-28T02:38:56.867Z,70.69
2022-08-28T02:40:02.559Z,70.65
2022-08-28T02:41:08.460Z,70.71
2022-08-28T02:42:10.639Z,70.53
2022-08-28T02:43:13.431Z,70.65
2022-08-28T02:44:15.601Z,70.67
2022-08-28T02:45:19.931Z,70.68
2022-08-28T02:46:22.127Z,70.62
2022-08-28T02:47:24.469Z,70.80
2022-08-28T02:48:31.761Z,70.63
2022-08-28T02:49:36.056Z,70.71
2022-08-28T02:50:41.538Z,70.57
2022-08-28T02:51:43.863Z,70.75
2022-08-28T02:52:46.921Z,70.60
2022-08-28T02:53:50.569Z,70.74
2022-08-28T02:54:52.735Z,70.79
2022-08-28T02:55:55.476Z,70.48
2022-08-28T02:56:58.756Z,70.68
2022-08-28T02:58:01.091Z,70.70
2022-08-28T02:59:03.619Z,70.77
2022-08-28T03:00:12.048Z,70.35
2022-08-28T03:01:14.497Z,70.32
2022-08-28T03:02:17.096Z,70.59
2022-08-28T03:03:20.409Z,70.26
2022-08-28T03:04:25.586Z,70.60
2022-08-28T03:05:27.769Z,70.37
2022-08-28T03:06:33.846Z,70.46
2022-08-28T03:07:36.185Z,70.52
2022-08-28T03:08:39.746Z,70.59
2022-08-28T03:09:43.710Z,70.26
2022-08-28T03:10:45.905Z,70.47
2022-08-28T03:11:48.831Z,70.11
2022-08-28T03:12:51.847Z,70.14
2022-08-28T03:13:54.520Z,70.20
2022-08-28T03:14:57.052Z,70.25
2022-08-28T03:15:59.578Z,70.23
2022-08-28T03:17:08.039Z,70.04
2022-08-28T03:18:11.489Z,70.20
2022-08-28T03:19:13.711Z,70.11
2022-08-28T03:20:16.453Z,70.09
2022-08-28T03:21:20.970Z,70.21
2022-08-28T03:22:43.206Z,70.06
2022-08-28T03:23:45.442Z,70.17
2022-08-28T03:24:47.726Z,69.78
2022-08-28T03:25:50.931Z,69.73
2022-08-28T03:26:53.160Z,69.82
2022-08-28T03:27:56.116Z,69.66
2022-08-28T03:28:59.792Z,70.01
2022-08-28T03:30:07.150Z,69.93
2022-08-28T03:31:11.912Z,69.97
2022-08-28T03:32:14.170Z,69.57
2022-08-28T03:33:16.761Z,69.60
2022-08-28T03:34:19.023Z,69.67
2022-08-28T03:35:22.047Z,69.77
2022-08-28T03:36:26.674Z,69.44
2022-08-28T03:37:28.916Z,69.88
2022-08-28T03:38:31.160Z,69.39
2022-08-28T03:39:33.372Z,69.61
2022-08-28T03:40:39.770Z,69.50
2022-08-28T03:41:44.966Z,69.85
2022-08-28T03:42:53.458Z,69.89
2022-08-28T03:44:01.319Z,69.83
2022-08-28T03:45:05.276Z,69.56
2022-08-28T03:46:09.182Z,69.60
2022-08-28T03:47:12.860Z,69.94
2022-08-28T03:48:15.486Z,69.95
2022-08-28T03:49:20.479Z,69.67
2022-08-28T03:50:23.386Z,69.64
2022-08-28T03:51:31.537Z,69.58
2022-08-28T03:52:33.706Z,69.49
2022-08-28T03:53:37.324Z,69.67
2022-08-28T03:54:39.567Z,69.81
2022-08-28T03:55:43.053Z,69.67
2022-08-28T03:56:45.264Z,69.88
2022-08-28T03:57:47.558Z,69.72
2022-08-28T03:58:52.484Z,69.79
2022-08-28T03:59:55.288Z,69.55
2022-08-28T04:01:00.491Z,69.62
2022-08-28T04:02:02.805Z,69.41
2022-08-28T04:03:05.030Z,69.66
2022-08-28T04:04:07.729Z,69.82
2022-08-28T04:05:11.262Z,69.63
2022-08-28T04:06:14.405Z,69.71
2022-08-28T04:07:17.636Z,69.69
2022-08-28T04:08:20.742Z,69.72
2022-08-28T04:09:23.012Z,69.80
2022-08-28T04:10:25.217Z,69.91
2022-08-28T04:11:28.423Z,69.88
2022-08-28T04:12:32.841Z,69.99
2022-08-28T04:13:37.703Z,70.01
2022-08-28T04:14:40.057Z,69.84
2022-08-28T04:15:44.879Z,69.85
2022-08-28T04:16:47.131Z,69.87
2022-08-28T04:17:49.655Z,69.73
2022-08-28T04:18:54.113Z,69.70
2022-08-28T04:19:56.509Z,69.96
2022-08-28T04:21:05.700Z,69.62
2022-08-28T04:22:08.404Z,69.75
2022-08-28T04:23:15.697Z,69.70
2022-08-28T04:24:18.049Z,70.01
2022-08-28T04:25:21.613Z,69.87
2022-08-28T04:26:26.535Z,69.77
2022-08-28T04:27:28.790Z,69.72
2022-08-28T04:28:32.761Z,69.85
2022-08-28T04:29:34.950Z,69.62
2022-08-28T04:30:37.164Z,69.65
2022-08-28T04:31:39.508Z,69.75
2022-08-28T04:32:42.109Z,69.68
2022-08-28T04:33:48.085Z,69.42
2022-08-28T04:34:50.640Z,69.64
2022-08-28T04:35:53.207Z,69.45
2022-08-28T04:36:55.464Z,69.59
2022-08-28T04:37:59.961Z,69.42
2022-08-28T04:39:06.056Z,69.43
2022-08-28T04:40:11.009Z,69.53
2022-08-28T04:41:15.904Z,69.65
2022-08-28T04:42:18.304Z,69.22
2022-08-28T04:43:21.333Z,69.22
2022-08-28T04:44:26.058Z,69.22
2022-08-28T04:45:30.073Z,69.29
2022-08-28T04:46:32.426Z,69.35
2022-08-28T04:47:38.601Z,69.15
2022-08-28T04:48:42.192Z,68.96
2022-08-28T04:49:44.409Z,69.07
2022-08-28T04:50:51.728Z,69.07
2022-08-28T04:51:54.499Z,68.65
2022-08-28T04:52:56.868Z,68.76
2022-08-28T04:53:59.354Z,68.53
2022-08-28T04:55:02.521Z,68.65
2022-08-28T04:56:07.211Z,68.27
2022-08-28T04:57:09.429Z,68.17
2022-08-28T04:58:11.770Z,68.23
2022-08-28T04:59:17.667Z,67.99
2022-08-28T05:00:19.928Z,68.29
2022-08-28T05:01:27.061Z,68.24
2022-08-28T05:02:29.533Z,67.89
2022-08-28T05:03:35.432Z,68.13
2022-08-28T05:04:37.689Z,68.05
2022-08-28T05:05:45.283Z,68.08
2022-08-28T05:06:47.719Z,67.96
2022-08-28T05:07:49.928Z,68.06
2022-08-28T05:08:52.403Z,67.93
2022-08-28T05:09:54.780Z,68.00
2022-08-28T05:10:58.277Z,67.69
2022-08-28T05:12:03.909Z,67.93
2022-08-28T05:13:09.400Z,67.79
2022-08-28T05:14:16.319Z,67.97
2022-08-28T05:15:18.694Z,67.92
2022-08-28T05:16:22.621Z,67.65
2022-08-28T05:17:24.831Z,67.93
2022-08-28T05:18:28.395Z,67.80
2022-08-28T05:19:32.876Z,67.67
2022-08-28T05:20:37.221Z,67.49
2022-08-28T05:21:42.792Z,67.07
2022-08-28T05:22:44.986Z,67.28
2022-08-28T05:23:53.722Z,66.76
2022-08-28T05:24:55.951Z,66.66
2022-08-28T05:25:58.380Z,66.78
2022-08-28T05:27:01.539Z,66.62
2022-08-28T05:28:04.160Z,66.41
2022-08-28T05:29:07.594Z,66.81
2022-08-28T05:30:10.704Z,66.80
2022-08-28T05:31:18.526Z,66.42
2022-08-28T05:32:21.663Z,66.64
2022-08-28T05:33:27.023Z,66.28
2022-08-28T05:34:29.251Z,66.30
2022-08-28T05:35:45.888Z,66.23
2022-08-28T05:36:48.992Z,66.40
2022-08-28T05:37:54.930Z,66.09
2022-08-28T05:38:58.113Z,65.89
2022-08-28T05:40:00.449Z,66.07
2022-08-28T05:41:03.763Z,66.09
2022-08-28T05:42:06.159Z,66.12
2022-08-28T05:43:10.916Z,65.88
2022-08-28T05:44:16.484Z,66.09
2022-08-28T05:45:19.138Z,66.30
2022-08-28T05:46:23.316Z,66.17
2022-08-28T05:47:25.529Z,66.23
2022-08-28T05:48:32.873Z,66.13
2022-08-28T05:49:40.791Z,66.18
2022-08-28T05:50:47.542Z,66.28
2022-08-28T05:51:50.828Z,66.53
2022-08-28T05:52:53.046Z,66.40
2022-08-28T05:53:57.746Z,66.31
2022-08-28T05:55:00.698Z,66.67
2022-08-28T05:56:07.040Z,66.94
2022-08-28T05:57:09.389Z,66.67
2022-08-28T05:58:31.201Z,66.90
2022-08-28T05:59:33.451Z,67.00
2022-08-28T06:00:35.669Z,66.86
2022-08-28T06:01:46.859Z,67.14
2022-08-28T06:02:49.828Z,67.10
2022-08-28T06:04:17.870Z,67.21
2022-08-28T06:05:20.305Z,67.18
2022-08-28T06:06:24.730Z,67.29
2022-08-28T06:07:30.038Z,67.25
2022-08-28T06:08:33.219Z,67.24
2022-08-28T06:09:35.454Z,67.02
2022-08-28T06:10:45.913Z,67.15
2022-08-28T06:11:59.169Z,66.69
2022-08-28T06:13:02.340Z,66.78
2022-08-28T06:14:11.119Z,66.77
2022-08-28T06:15:13.336Z,67.04
2022-08-28T06:16:15.640Z,66.55
2022-08-28T06:17:17.933Z,66.34
2022-08-28T06:18:26.752Z,66.47
2022-08-28T06:19:30.961Z,65.97
2022-08-28T06:20:37.820Z,66.22
2022-08-28T06:21:41.609Z,66.01
2022-08-28T06:22:44.055Z,65.74
2022-08-28T06:23:46.254Z,65.46
2022-08-28T06:24:48.439Z,65.65
2022-08-28T06:25:51.789Z,65.65
2022-08-28T06:26:58.086Z,65.38
2022-08-28T06:28:01.153Z,65.35
2022-08-28T06:29:06.502Z,65.43
2022-08-28T06:30:09.572Z,65.24
2022-08-28T06:31:23.665Z,65.33
2022-08-28T06:32:27.763Z,65.36
2022-08-28T06:33:30.456Z,65.53
2022-08-28T06:34:33.092Z,65.17
2022-08-28T06:35:40.807Z,65.07
2022-08-28T06:36:43.103Z,65.18
2022-08-28T06:37:45.267Z,64.72
2022-08-28T06:38:47.467Z,64.65
2022-08-28T06:39:49.627Z,64.46
2022-08-28T06:40:55.021Z,64.61
2022-08-28T06:41:57.257Z,64.36
2022-08-28T06:42:59.446Z,63.91
2022-08-28T06:44:01.758Z,63.78
2022-08-28T06:45:07.362Z,63.87
2022-08-28T06:46:09.747Z,63.66
2022-08-28T06:47:14.885Z,63.73
2022-08-28T06:48:19.797Z,63.79
2022-08-28T06:49:22.087Z,63.87
2022-08-28T06:50:24.328Z,63.91
2022-08-28T06:51:34.203Z,63.75
2022-08-28T06:52:36.401Z,64.16
2022-08-28T06:53:42.764Z,64.10
2022-08-28T06:54:55.277Z,63.78
2022-08-28T06:56:07.379Z,64.03
2022-08-28T06:57:10.065Z,64.13
2022-08-28T06:58:13.209Z,63.91
2022-08-28T06:59:15.557Z,63.86
2022-08-28T07:00:18.260Z,63.76
2022-08-28T07:01:29.731Z,63.80
2022-08-28T07:02:35.511Z,63.93
2022-08-28T07:03:44.392Z,63.77
2022-08-28T07:04:51.449Z,63.70
2022-08-28T07:05:58.462Z,63.34
2022-08-28T07:07:00.682Z,63.48
2022-08-28T07:08:03.132Z,63.43
2022-08-28T07:09:07.530Z,63.44
2022-08-28T07:10:10.140Z,63.32
2022-08-28T07:12:40.542Z,63.03
2022-08-28T07:13:44.815Z,63.15
2022-08-28T07:14:46.996Z,63.07
2022-08-28T07:15:49.284Z,62.97
2022-08-28T07:16:51.885Z,62.91
2022-08-28T07:17:54.205Z,62.98
2022-08-28T07:18:57.326Z,62.75
2022-08-28T07:19:59.591Z,62.40
2022-08-28T07:21:02.374Z,62.52
2022-08-28T07:22:05.026Z,62.37
2022-08-28T07:23:10.828Z,62.22
2022-08-28T07:24:15.460Z,62.20
2022-08-28T07:25:17.820Z,61.96
2022-08-28T07:26:24.537Z,61.51
2022-08-28T07:27:26.775Z,61.45
2022-08-28T07:28:29.289Z,61.29
2022-08-28T07:29:31.480Z,61.04
2022-08-28T07:30:33.756Z,60.84
2022-08-28T07:31:36.685Z,60.72
2022-08-28T07:32:41.823Z,60.49
2022-08-28T07:33:44.415Z,60.63
2022-08-28T07:34:46.685Z,60.43
2022-08-28T07:35:50.577Z,60.36
2022-08-28T07:36:52.768Z,60.44
2022-08-28T07:37:55.013Z,60.32
2022-08-28T07:38:59.362Z,60.39
2022-08-28T07:40:01.747Z,60.25
2022-08-28T07:41:04.594Z,60.14
2022-08-28T07:42:07.008Z,60.14
2022-08-28T07:43:28.049Z,59.92
2022-08-28T07:44:51.194Z,60.15
2022-08-28T07:46:11.611Z,59.84
2022-08-28T07:47:14.192Z,59.91
2022-08-28T07:48:16.853Z,59.82
2022-08-28T07:49:24.717Z,59.47
2022-08-28T07:50:26.937Z,58.96
2022-08-28T07:51:29.288Z,59.19
2022-08-28T07:52:31.476Z,59.22
2022-08-28T07:53:41.331Z,59.19
2022-08-28T07:54:43.515Z,59.02
2022-08-28T07:55:45.731Z,59.09
2022-08-28T07:56:48.577Z,58.56
2022-08-28T07:57:50.773Z,58.50
2022-08-28T07:58:56.903Z,58.05
2022-08-28T07:59:59.617Z,57.90
2022-08-28T08:01:01.921Z,57.77
2022-08-28T08:02:05.934Z,57.88
2022-08-28T08:03:08.310Z,57.61
2022-08-28T08:04:16.076Z,57.78
2022-08-28T08:05:18.422Z,57.97
2022-08-28T08:06:21.525Z,58.38
2022-08-28T08:07:23.739Z,58.19
2022-08-28T08:08:26.486Z,58.80
2022-08-28T08:09:28.762Z,58.29
2022-08-28T08:10:34.171Z,58.18
2022-08-28T08:11:36.874Z,58.47
2022-08-28T08:12:39.068Z,58.62
2022-08-28T08:13:41.409Z,58.49
2022-08-28T08:14:44.364Z,58.87
2022-08-28T08:15:47.525Z,58.68
2022-08-28T08:16:53.564Z,58.16
2022-08-28T08:17:55.736Z,58.27
2022-08-28T08:18:58.199Z,57.77
2022-08-28T08:20:01.257Z,58.06
2022-08-28T08:21:09.990Z,57.79
2022-08-28T08:22:12.562Z,57.72
2022-08-28T08:23:15.573Z,56.89
2022-08-28T08:24:21.110Z,56.01
2022-08-28T08:25:23.371Z,55.89
2022-08-28T08:26:28.402Z,55.60
2022-08-28T08:28:50.627Z,55.61
2022-08-28T08:29:52.907Z,55.68
2022-08-28T08:31:05.736Z,56.09
2022-08-28T08:32:11.021Z,54.82
2022-08-28T08:33:13.619Z,54.85
2022-08-28T08:34:16.606Z,54.96
2022-08-28T08:35:18.861Z,54.89
2022-08-28T08:36:23.230Z,54.79
2022-08-28T08:37:25.495Z,55.02
2022-08-28T08:38:31.287Z,54.88
2022-08-28T08:39:37.860Z,54.87
2022-08-28T08:40:40.111Z,55.16
2022-08-28T08:41:48.225Z,54.53
2022-08-28T08:42:57.148Z,53.89
2022-08-28T08:44:17.976Z,53.83
2022-08-28T08:45:24.473Z,54.18
2022-08-28T08:46:52.417Z,53.57
2022-08-28T08:47:56.999Z,52.98
2022-08-28T08:49:03.124Z,52.68
2022-08-28T08:50:18.604Z,52.18
2022-08-28T08:51:40.174Z,51.66
2022-08-28T08:53:06.762Z,51.02
2022-08-28T08:54:22.633Z,50.59
2022-08-28T08:55:27.264Z,50.66
2022-08-28T08:56:34.919Z,50.82
2022-08-28T08:57:39.143Z,51.02
2022-08-28T08:58:45.680Z,50.80
2022-08-28T08:59:47.979Z,50.61
2022-08-28T09:01:09.646Z,50.76
2022-08-28T09:02:19.310Z,50.32
2022-08-28T09:03:32.693Z,50.50
2022-08-28T09:04:44.175Z,50.71
2022-08-28T09:05:54.171Z,50.65
2022-08-28T09:07:13.918Z,51.09
2022-08-28T09:08:31.956Z,50.22
2022-08-28T09:09:42.816Z,50.30
2022-08-28T09:10:55.233Z,49.61
2022-08-28T09:12:06.350Z,49.51
2022-08-28T09:13:24.103Z,49.81
2022-08-28T09:14:49.831Z,50.21
2022-08-28T09:15:52.432Z,50.03
2022-08-28T09:16:56.303Z,49.53
2022-08-28T09:18:15.707Z,49.49
2022-08-28T09:19:20.512Z,49.07
2022-08-28T09:20:33.281Z,48.92
2022-08-28T09:21:40.527Z,48.50
2022-08-28T09:22:46.263Z,48.85
2022-08-28T09:23:48.486Z,48.32
2022-08-28T09:24:52.009Z,48.60
2022-08-28T09:25:56.716Z,48.29
2022-08-28T09:27:23.236Z,48.97
2022-08-28T09:28:32.469Z,48.18
2022-08-28T09:29:36.670Z,47.53
2022-08-28T09:30:39.099Z,47.61
2022-08-28T09:31:41.986Z,48.00
2022-08-28T09:32:58.030Z,48.42
2022-08-28T09:34:26.648Z,48.72
2022-08-28T09:35:31.956Z,48.21
2022-08-28T09:36:36.509Z,48.49
2022-08-28T09:37:39.881Z,48.58
2022-08-28T09:38:42.134Z,48.20
2022-08-28T09:39:48.692Z,47.41
2022-08-28T09:41:26.717Z,47.22
2022-08-28T09:42:48.065Z,47.47
2022-08-28T09:43:50.332Z,47.60
2022-08-28T09:45:15.158Z,48.58
2022-08-28T09:46:29.342Z,48.21
2022-08-28T09:47:52.414Z,47.90
2022-08-28T09:49:08.779Z,48.34
2022-08-28T09:50:23.270Z,48.69
2022-08-28T09:51:25.436Z,48.63
2022-08-28T09:52:27.617Z,48.98
2022-08-28T09:53:32.613Z,49.02
2022-08-28T09:54:42.092Z,49.08
2022-08-28T09:56:21.175Z,48.69
2022-08-28T09:57:23.362Z,47.88
2022-08-28T09:58:50.710Z,48.39
2022-08-28T09:59:53.249Z,47.98
2022-08-28T10:01:13.249Z,47.61
2022-08-28T10:02:38.065Z,46.70
2022-08-28T10:04:04.207Z,46.51
2022-08-28T10:05:13.174Z,46.08
2022-08-28T10:06:21.873Z,46.07
2022-08-28T10:07:46.701Z,47.13
2022-08-28T10:09:06.134Z,46.70
2022-08-28T10:10:35.363Z,46.41
2022-08-28T10:11:46.751Z,46.16
2022-08-28T10:13:15.675Z,46.03
2022-08-28T10:14:37.418Z,46.16
2022-08-28T10:16:04.951Z,46.12
2022-08-28T10:17:30.040Z,45.15
2022-08-28T10:18:40.190Z,44.26
2022-08-28T10:20:00.851Z,43.86
2022-08-28T10:21:13.872Z,44.30
2022-08-28T10:22:41.460Z,44.25
2022-08-28T10:23:52.719Z,43.96
2022-08-28T10:25:23.595Z,44.99
2022-08-28T10:27:00.260Z,45.16
2022-08-28T10:28:23.959Z,44.70
2022-08-28T10:30:02.770Z,44.55
2022-08-28T10:31:21.742Z,43.90
2022-08-28T10:32:46.315Z,43.87
2022-08-28T10:34:02.631Z,43.55
2022-08-28T10:35:21.181Z,43.66
2022-08-28T10:36:34.864Z,43.61
2022-08-28T10:37:58.667Z,43.49
2022-08-28T10:39:30.094Z,43.41
2022-08-28T10:40:39.027Z,42.63
2022-08-28T10:41:50.986Z,42.98
2022-08-28T10:43:03.898Z,42.73
2022-08-28T10:44:07.772Z,42.13
2022-08-28T10:45:17.501Z,41.97
2022-08-28T10:46:27.220Z,41.59
2022-08-28T10:47:32.760Z,41.00
2022-08-28T10:48:56.271Z,41.77
2022-08-28T10:50:11.958Z,41.31
2022-08-28T10:51:34.928Z,40.27
2022-08-28T10:52:45.247Z,40.81
2022-08-28T10:53:54.414Z,40.83
2022-08-28T10:55:02.081Z,41.21
2022-08-28T10:56:13.245Z,40.92
2022-08-28T10:57:25.468Z,40.90
2022-08-28T10:58:27.814Z,41.07
2022-08-28T10:59:41.838Z,41.59
2022-08-28T11:00:45.480Z,41.16
2022-08-28T11:01:50.375Z,41.18
2022-08-28T11:02:58.356Z,41.60
2022-08-28T11:04:08.177Z,41.16
2022-08-28T11:05:11.493Z,41.05
2022-08-28T11:06:54.775Z,41.94
2022-08-28T11:08:03.368Z,41.28
2022-08-28T11:09:25.305Z,41.18
2022-08-28T11:10:50.582Z,41.55
2022-08-28T11:12:22.919Z,42.19
2022-08-28T11:13:57.519Z,41.92
2022-08-28T11:15:37.370Z,41.95
2022-08-28T11:16:47.189Z,41.63
2022-08-28T11:17:50.393Z,40.86
2022-08-28T11:19:01.104Z,40.66
2022-08-28T11:20:17.790Z,41.10
2022-08-28T11:21:37.119Z,41.05
2022-08-28T11:23:10.599Z,41.53
2022-08-28T11:24:31.349Z,41.93
2022-08-28T11:25:55.342Z,41.87
2022-08-28T11:27:03.957Z,40.85
2022-08-28T11:28:36.717Z,40.99
2022-08-28T11:30:11.280Z,41.27
2022-08-28T11:31:29.179Z,40.67
2022-08-28T11:32:31.758Z,41.02
2022-08-28T11:33:52.730Z,41.13
2022-08-28T11:35:01.593Z,41.53
2022-08-28T11:36:29.855Z,41.22
2022-08-28T11:37:44.458Z,41.17
2022-08-28T11:39:17.654Z,41.52
2022-08-28T11:40:32.354Z,41.40
2022-08-28T11:41:39.136Z,41.31
2022-08-28T11:42:42.035Z,41.48
2022-08-28T11:43:45.928Z,41.82
2022-08-28T11:44:48.155Z,42.08
2022-08-28T11:45:53.414Z,41.89
2022-08-28T11:47:34.592Z,42.03
2022-08-28T11:48:36.807Z,41.27
2022-08-28T11:49:42.196Z,40.87
2022-08-28T11:51:07.138Z,41.41
2022-08-28T11:52:37.163Z,41.73
2022-08-28T11:54:17.399Z,41.78
2022-08-28T11:55:30.123Z,41.18
2022-08-28T11:56:49.732Z,41.47
2022-08-28T11:59:35.441Z,41.89
2022-08-28T12:00:40.753Z,41.57
2022-08-28T12:01:43.115Z,41.12
2022-08-28T12:02:50.178Z,40.99
2022-08-28T12:04:01.929Z,40.92
2022-08-28T12:05:09.451Z,41.04
2022-08-28T12:06:16.463Z,41.53
2022-08-28T12:07:23.006Z,41.75
2022-08-28T12:08:59.098Z,42.04
2022-08-28T12:10:05.003Z,41.64
2022-08-28T12:11:07.805Z,41.66
2022-08-28T12:12:50.228Z,41.66
2022-08-28T12:13:55.297Z,41.05
2022-08-28T12:15:01.327Z,41.17
2022-08-28T12:16:06.699Z,41.13
2022-08-28T12:17:30.515Z,41.50
2022-08-28T12:18:46.557Z,41.48
2022-08-28T12:20:11.899Z,41.98
2022-08-28T12:21:21.502Z,41.61
2022-08-28T12:22:26.803Z,41.79
2022-08-28T12:23:43.617Z,42.05
2022-08-28T12:24:59.366Z,42.27
2022-08-28T12:26:05.804Z,42.10
2022-08-28T12:27:08.202Z,42.13
2022-08-28T12:28:26.051Z,42.10
2022-08-28T12:29:32.333Z,42.14
2022-08-28T12:30:52.354Z,42.16
2022-08-28T12:32:26.628Z,42.27
2022-08-28T12:33:43.629Z,41.91
2022-08-28T12:35:00.891Z,42.01
2022-08-28T12:36:06.070Z,41.57
2022-08-28T12:37:51.838Z,42.09
2022-08-28T12:39:01.483Z,41.50
2022-08-28T12:40:38.992Z,41.79
2022-08-28T12:41:47.096Z,41.74
2022-08-28T12:42:58.763Z,41.78
2022-08-28T12:44:01.398Z,42.22
2022-08-28T12:45:09.632Z,42.38
2022-08-28T12:46:19.762Z,42.15
2022-08-28T12:47:26.318Z,42.25
2022-08-28T12:48:31.756Z,42.47
2022-08-28T12:49:36.553Z,42.20
2022-08-28T12:50:40.278Z,42.45
2022-08-28T12:53:01.888Z,42.46
2022-08-28T12:54:08.327Z,42.87
2022-08-28T12:55:10.502Z,42.44
2022-08-28T12:56:15.184Z,42.88
2022-08-28T12:57:20.307Z,43.04
2022-08-28T12:58:45.413Z,43.20
2022-08-28T12:59:55.936Z,43.14
2022-08-28T13:01:06.479Z,42.89
2022-08-28T13:02:27.622Z,42.90
2022-08-28T13:03:30.249Z,43.11
2022-08-28T13:04:39.865Z,42.72
2022-08-28T13:05:42.572Z,42.41
2022-08-28T13:06:44.774Z,42.29
2022-08-28T13:07:50.022Z,42.35
2022-08-28T13:09:05.516Z,42.18
2022-08-28T13:10:32.289Z,42.87
2022-08-28T13:11:38.751Z,42.78
2022-08-28T13:12:55.872Z,42.78
2022-08-28T13:13:59.609Z,43.00
2022-08-28T13:15:02.512Z,42.90
2022-08-28T13:16:12.120Z,43.11
2022-08-28T13:17:35.488Z,42.99
2022-08-28T13:18:42.341Z,42.48
2022-08-28T13:19:44.537Z,42.71
2022-08-28T13:20:46.757Z,42.36
2022-08-28T13:21:51.939Z,42.58
2022-08-28T13:22:54.234Z,42.62
2022-08-28T13:23:58.679Z,42.72
2022-08-28T13:25:07.990Z,42.31
2022-08-28T13:26:19.059Z,42.25
2022-08-28T13:27:24.567Z,42.47
2022-08-28T13:28:27.149Z,42.62
2022-08-28T13:29:30.155Z,42.53
2022-08-28T13:30:35.248Z,42.53
2022-08-28T13:31:40.693Z,43.03
2022-08-28T13:32:55.772Z,43.03
2022-08-28T13:34:16.111Z,42.86
2022-08-28T13:35:20.754Z,42.70
2022-08-28T13:36:24.960Z,42.85
2022-08-28T13:37:47.184Z,42.64
2022-08-28T13:38:49.378Z,42.29
2022-08-28T13:39:51.577Z,42.05
2022-08-28T13:41:02.593Z,42.00
2022-08-28T13:42:10.582Z,42.40
2022-08-28T13:43:15.699Z,43.02
2022-08-28T13:44:27.090Z,42.96
2022-08-28T13:45:32.699Z,42.37
2022-08-28T13:46:44.972Z,42.41
2022-08-28T13:47:49.902Z,42.13
2022-08-28T13:48:54.857Z,42.30
2022-08-28T13:49:57.232Z,42.31
2022-08-28T13:51:04.840Z,42.36
2022-08-28T13:52:07.925Z,42.46
2022-08-28T13:53:16.803Z,42.18
2022-08-28T13:54:19.030Z,42.37
2022-08-28T13:55:22.244Z,42.55
2022-08-28T13:56:27.338Z,42.21
2022-08-28T13:57:29.583Z,42.32
2022-08-28T13:58:36.573Z,42.14
2022-08-28T13:59:38.796Z,41.92
2022-08-28T14:00:44.888Z,42.18
2022-08-28T14:02:06.280Z,41.93
2022-08-28T14:03:27.894Z,42.38
2022-08-28T14:04:30.101Z,42.46
2022-08-28T14:05:33.529Z,42.32
2022-08-28T14:06:38.378Z,41.82
2022-08-28T14:07:40.644Z,41.71
2022-08-28T14:08:47.273Z,41.59
2022-08-28T14:09:52.912Z,42.40
2022-08-28T14:10:58.543Z,41.69
2022-08-28T14:12:01.860Z,41.72
2022-08-28T14:13:04.036Z,41.44
2022-08-28T14:14:06.258Z,41.35
2022-08-28T14:15:12.187Z,41.43
2022-08-28T14:16:19.191Z,41.36
2022-08-28T14:17:21.699Z,41.59
2022-08-28T14:18:25.495Z,41.80
2022-08-28T14:19:28.434Z,41.89
2022-08-28T14:20:31.146Z,41.67
2022-08-28T14:21:34.967Z,41.65
2022-08-28T14:22:37.328Z,41.59
2022-08-28T14:23:39.509Z,41.11
2022-08-28T14:24:44.914Z,41.20
2022-08-28T14:25:47.558Z,41.32
2022-08-28T14:26:50.209Z,41.68
2022-08-28T14:27:52.458Z,41.65
2022-08-28T14:28:55.732Z,41.94
2022-08-28T14:29:57.928Z,41.53
2022-08-28T14:31:00.172Z,41.22
2022-08-28T14:32:04.187Z,41.00
2022-08-28T14:33:06.549Z,41.15
2022-08-28T14:34:11.190Z,41.19